sensor_id;sensor_type;location;lat;lon;timestamp;pressure;altitude;pressure_sealevel;temperature;humidity
9423;BME280;65863;49.506;10.400;2023-07-02T00:00:21;97269.63;;;15.67;98.36
9423;BME280;65863;49.506;10.400;2023-07-02T00:03:05;97310.91;;;16.04;98.34
9423;BME280;65863;49.506;10.400;2023-07-02T00:05:49;97268.81;;;15.76;98.44
9423;BME280;65863;49.506;10.400;2023-07-02T00:08:34;97268.00;;;15.86;98.64
9423;BME280;65863;49.506;10.400;2023-07-02T00:11:18;97240.78;;;15.59;98.54
9423;BME280;65863;49.506;10.400;2023-07-02T00:14:02;97299.50;;;16.13;98.46
9423;BME280;65863;49.506;10.400;2023-07-02T00:16:46;97258.94;;;15.99;98.47
9423;BME280;65863;49.506;10.400;2023-07-02T00:19:30;97245.88;;;15.82;98.25
9423;BME280;65863;49.506;10.400;2023-07-02T00:22:14;97268.56;;;16.06;98.31
9423;BME280;65863;49.506;10.400;2023-07-02T00:24:59;97280.16;;;16.10;98.05
9423;BME280;65863;49.506;10.400;2023-07-02T00:27:44;97267.69;;;16.03;98.05
9423;BME280;65863;49.506;10.400;2023-07-02T00:30:28;97246.09;;;15.86;97.87
9423;BME280;65863;49.506;10.400;2023-07-02T00:33:12;97304.84;;;16.31;97.93
9423;BME280;65863;49.506;10.400;2023-07-02T00:35:56;97296.94;;;16.17;97.84
9423;BME280;65863;49.506;10.400;2023-07-02T00:38:42;97157.28;;;15.24;97.57
9423;BME280;65863;49.506;10.400;2023-07-02T00:41:26;97317.66;;;16.32;97.49
9423;BME280;65863;49.506;10.400;2023-07-02T00:44:10;97294.31;;;16.10;97.39
9423;BME280;65863;49.506;10.400;2023-07-02T00:46:54;97328.38;;;16.33;97.49
9423;BME280;65863;49.506;10.400;2023-07-02T00:49:39;97331.72;;;16.42;97.63
9423;BME280;65863;49.506;10.400;2023-07-02T00:52:24;97304.59;;;16.27;97.50
9423;BME280;65863;49.506;10.400;2023-07-02T00:55:10;97313.81;;;16.27;97.50
9423;BME280;65863;49.506;10.400;2023-07-02T00:57:54;97331.31;;;16.35;97.13
9423;BME280;65863;49.506;10.400;2023-07-02T01:00:41;97327.53;;;16.43;97.22
9423;BME280;65863;49.506;10.400;2023-07-02T01:03:27;97334.94;;;16.48;96.81
9423;BME280;65863;49.506;10.400;2023-07-02T01:06:12;97316.44;;;16.35;96.60
9423;BME280;65863;49.506;10.400;2023-07-02T01:09:00;97259.81;;;16.01;96.29
9423;BME280;65863;49.506;10.400;2023-07-02T01:11:50;97310.50;;;16.31;96.05
9423;BME280;65863;49.506;10.400;2023-07-02T01:14:46;97342.44;;;16.43;95.41
9423;BME280;65863;49.506;10.400;2023-07-02T01:17:32;97336.78;;;16.43;94.78
9423;BME280;65863;49.506;10.400;2023-07-02T01:20:21;97268.28;;;15.90;94.26
9423;BME280;65863;49.506;10.400;2023-07-02T01:23:05;97321.22;;;15.99;93.77
9423;BME280;65863;49.506;10.400;2023-07-02T01:25:51;97302.88;;;15.78;93.09
9423;BME280;65863;49.506;10.400;2023-07-02T01:28:36;97338.28;;;15.89;92.78
9423;BME280;65863;49.506;10.400;2023-07-02T01:31:22;97345.47;;;15.80;92.31
9423;BME280;65863;49.506;10.400;2023-07-02T01:34:08;97299.97;;;15.45;92.05
9423;BME280;65863;49.506;10.400;2023-07-02T01:36:54;97322.41;;;15.53;91.68
9423;BME280;65863;49.506;10.400;2023-07-02T01:39:38;97349.75;;;15.60;91.72
9423;BME280;65863;49.506;10.400;2023-07-02T01:42:22;97327.72;;;15.37;91.79
9423;BME280;65863;49.506;10.400;2023-07-02T01:45:06;97297.47;;;15.18;91.80
9423;BME280;65863;49.506;10.400;2023-07-02T01:47:50;97340.22;;;15.33;91.65
9423;BME280;65863;49.506;10.400;2023-07-02T01:50:34;97321.13;;;15.12;91.80
9423;BME280;65863;49.506;10.400;2023-07-02T01:53:18;97337.34;;;15.12;92.02
9423;BME280;65863;49.506;10.400;2023-07-02T01:56:03;97350.47;;;15.07;92.01
9423;BME280;65863;49.506;10.400;2023-07-02T01:58:47;97360.44;;;15.08;92.15
9423;BME280;65863;49.506;10.400;2023-07-02T02:01:31;97317.13;;;14.74;92.29
9423;BME280;65863;49.506;10.400;2023-07-02T02:04:16;97353.06;;;14.84;92.54
9423;BME280;65863;49.506;10.400;2023-07-02T02:07:02;97322.50;;;14.51;92.65
9423;BME280;65863;49.506;10.400;2023-07-02T02:09:46;97372.53;;;14.89;93.05
9423;BME280;65863;49.506;10.400;2023-07-02T02:12:30;97343.13;;;14.73;92.89
9423;BME280;65863;49.506;10.400;2023-07-02T02:15:15;97384.84;;;14.94;93.39
9423;BME280;65863;49.506;10.400;2023-07-02T02:18:00;97362.75;;;14.80;93.26
9423;BME280;65863;49.506;10.400;2023-07-02T02:20:44;97375.53;;;14.91;93.42
9423;BME280;65863;49.506;10.400;2023-07-02T02:23:28;97328.28;;;14.53;93.29
9423;BME280;65863;49.506;10.400;2023-07-02T02:26:12;97385.94;;;14.89;93.37
9423;BME280;65863;49.506;10.400;2023-07-02T02:28:56;97381.59;;;14.88;93.40
9423;BME280;65863;49.506;10.400;2023-07-02T02:31:40;97367.94;;;14.84;93.44
9423;BME280;65863;49.506;10.400;2023-07-02T02:34:24;97367.50;;;14.78;93.58
9423;BME280;65863;49.506;10.400;2023-07-02T02:37:08;97340.63;;;14.57;93.27
9423;BME280;65863;49.506;10.400;2023-07-02T02:39:52;97387.56;;;14.82;93.21
9423;BME280;65863;49.506;10.400;2023-07-02T02:42:38;97362.31;;;14.74;93.44
9423;BME280;65863;49.506;10.400;2023-07-02T02:45:23;97300.72;;;14.22;93.55
9423;BME280;65863;49.506;10.400;2023-07-02T02:48:07;97383.13;;;14.79;93.39
9423;BME280;65863;49.506;10.400;2023-07-02T02:50:51;97384.47;;;14.78;93.45
9423;BME280;65863;49.506;10.400;2023-07-02T02:53:35;97378.69;;;14.66;93.39
9423;BME280;65863;49.506;10.400;2023-07-02T02:56:19;97377.91;;;14.85;93.51
9423;BME280;65863;49.506;10.400;2023-07-02T02:59:03;97253.50;;;14.03;93.24
9423;BME280;65863;49.506;10.400;2023-07-02T03:01:47;97369.44;;;14.75;93.20
9423;BME280;65863;49.506;10.400;2023-07-02T03:04:31;97370.81;;;14.74;93.10
9423;BME280;65863;49.506;10.400;2023-07-02T03:07:16;97394.53;;;14.91;92.74
9423;BME280;65863;49.506;10.400;2023-07-02T03:10:00;97213.16;;;13.71;92.58
9423;BME280;65863;49.506;10.400;2023-07-02T03:12:44;97359.06;;;14.68;92.20
9423;BME280;65863;49.506;10.400;2023-07-02T03:15:28;97334.81;;;14.55;91.41
9423;BME280;65863;49.506;10.400;2023-07-02T03:18:12;97395.75;;;14.88;90.88
9423;BME280;65863;49.506;10.400;2023-07-02T03:20:56;97370.81;;;14.74;90.17
9423;BME280;65863;49.506;10.400;2023-07-02T03:23:40;97359.22;;;14.70;89.66
9423;BME280;65863;49.506;10.400;2023-07-02T03:26:24;97386.81;;;14.91;89.10
9423;BME280;65863;49.506;10.400;2023-07-02T03:29:08;97382.03;;;14.94;88.46
9423;BME280;65863;49.506;10.400;2023-07-02T03:31:52;97403.69;;;15.11;88.23
9423;BME280;65863;49.506;10.400;2023-07-02T03:34:36;97358.31;;;14.77;87.57
9423;BME280;65863;49.506;10.400;2023-07-02T03:37:20;97389.47;;;14.89;86.94
9423;BME280;65863;49.506;10.400;2023-07-02T03:40:04;97385.13;;;15.08;86.46
9423;BME280;65863;49.506;10.400;2023-07-02T03:42:49;97418.38;;;15.29;86.05
9423;BME280;65863;49.506;10.400;2023-07-02T03:45:33;97394.78;;;15.14;85.51
9423;BME280;65863;49.506;10.400;2023-07-02T03:48:17;97409.16;;;15.28;85.16
9423;BME280;65863;49.506;10.400;2023-07-02T03:51:02;97343.56;;;14.79;84.81
9423;BME280;65863;49.506;10.400;2023-07-02T03:53:47;97413.75;;;15.24;84.69
9423;BME280;65863;49.506;10.400;2023-07-02T03:56:31;97331.81;;;14.73;84.68
9423;BME280;65863;49.506;10.400;2023-07-02T03:59:15;97370.25;;;15.07;84.63
9423;BME280;65863;49.506;10.400;2023-07-02T04:01:59;97417.88;;;15.42;84.76
9423;BME280;65863;49.506;10.400;2023-07-02T04:04:43;97409.66;;;15.46;84.72
9423;BME280;65863;49.506;10.400;2023-07-02T04:07:27;97424.19;;;15.62;84.50
9423;BME280;65863;49.506;10.400;2023-07-02T04:10:12;97391.97;;;15.46;84.44
9423;BME280;65863;49.506;10.400;2023-07-02T04:12:56;97420.00;;;15.63;84.70
9423;BME280;65863;49.506;10.400;2023-07-02T04:15:39;97419.66;;;15.69;84.60
9423;BME280;65863;49.506;10.400;2023-07-02T04:18:24;97390.13;;;15.50;84.84
9423;BME280;65863;49.506;10.400;2023-07-02T04:21:07;97403.03;;;15.63;85.02
9423;BME280;65863;49.506;10.400;2023-07-02T04:23:51;97427.09;;;15.74;85.31
9423;BME280;65863;49.506;10.400;2023-07-02T04:26:35;97414.94;;;15.62;85.34
9423;BME280;65863;49.506;10.400;2023-07-02T04:29:20;97438.19;;;15.92;85.71
9423;BME280;65863;49.506;10.400;2023-07-02T04:32:05;97444.56;;;16.02;85.90
9423;BME280;65863;49.506;10.400;2023-07-02T04:34:49;97369.50;;;15.70;85.48
9423;BME280;65863;49.506;10.400;2023-07-02T04:37:34;97395.56;;;15.99;85.28
9423;BME280;65863;49.506;10.400;2023-07-02T04:40:18;97439.63;;;16.46;84.97
9423;BME280;65863;49.506;10.400;2023-07-02T04:43:02;97426.59;;;16.52;84.21
9423;BME280;65863;49.506;10.400;2023-07-02T04:45:46;97440.53;;;16.60;83.57
9423;BME280;65863;49.506;10.400;2023-07-02T04:48:32;97401.94;;;16.22;82.85
9423;BME280;65863;49.506;10.400;2023-07-02T04:51:16;97279.38;;;15.54;82.46
9423;BME280;65863;49.506;10.400;2023-07-02T04:53:59;97471.56;;;16.80;81.71
9423;BME280;65863;49.506;10.400;2023-07-02T04:56:44;97399.22;;;16.45;80.69
9423;BME280;65863;49.506;10.400;2023-07-02T04:59:28;97443.81;;;16.78;79.80
9423;BME280;65863;49.506;10.400;2023-07-02T05:02:11;97450.56;;;16.73;78.28
9423;BME280;65863;49.506;10.400;2023-07-02T05:04:55;97461.03;;;16.70;76.82
9423;BME280;65863;49.506;10.400;2023-07-02T05:07:40;97469.19;;;16.76;75.84
9423;BME280;65863;49.506;10.400;2023-07-02T05:10:24;97462.28;;;16.46;74.85
9423;BME280;65863;49.506;10.400;2023-07-02T05:13:08;97459.78;;;16.40;74.25
9423;BME280;65863;49.506;10.400;2023-07-02T05:15:52;97451.97;;;16.50;73.26
9423;BME280;65863;49.506;10.400;2023-07-02T05:18:37;97444.88;;;16.95;71.39
9423;BME280;65863;49.506;10.400;2023-07-02T05:21:22;97446.31;;;17.41;68.84
9423;BME280;65863;49.506;10.400;2023-07-02T05:24:08;97470.00;;;17.34;67.87
9423;BME280;65863;49.506;10.400;2023-07-02T05:26:52;97458.84;;;17.02;68.72
9423;BME280;65863;49.506;10.400;2023-07-02T05:29:36;97465.13;;;16.79;69.52
9423;BME280;65863;49.506;10.400;2023-07-02T05:32:20;97475.94;;;16.93;70.51
9423;BME280;65863;49.506;10.400;2023-07-02T05:35:04;97413.72;;;17.07;70.43
9423;BME280;65863;49.506;10.400;2023-07-02T05:37:48;97488.06;;;18.97;67.74
9423;BME280;65863;49.506;10.400;2023-07-02T05:40:32;97437.75;;;19.39;63.28
9423;BME280;65863;49.506;10.400;2023-07-02T05:43:16;97478.09;;;20.44;60.18
9423;BME280;65863;49.506;10.400;2023-07-02T05:46:00;97387.88;;;19.24;57.68
9423;BME280;65863;49.506;10.400;2023-07-02T05:48:45;97467.91;;;19.98;56.72
9423;BME280;65863;49.506;10.400;2023-07-02T05:51:29;97440.41;;;20.46;55.55
9423;BME280;65863;49.506;10.400;2023-07-02T05:54:13;97498.75;;;20.73;53.61
9423;BME280;65863;49.506;10.400;2023-07-02T05:56:57;97500.31;;;20.76;52.82
9423;BME280;65863;49.506;10.400;2023-07-02T05:59:41;97475.91;;;20.15;51.92
9423;BME280;65863;49.506;10.400;2023-07-02T06:02:25;97487.47;;;20.47;51.17
9423;BME280;65863;49.506;10.400;2023-07-02T06:05:09;97488.56;;;20.12;50.51
9423;BME280;65863;49.506;10.400;2023-07-02T06:07:53;97488.34;;;20.36;52.36
9423;BME280;65863;49.506;10.400;2023-07-02T06:10:37;97498.16;;;20.90;51.79
9423;BME280;65863;49.506;10.400;2023-07-02T06:13:21;97484.47;;;21.32;50.30
9423;BME280;65863;49.506;10.400;2023-07-02T06:16:05;97508.47;;;21.27;50.44
9423;BME280;65863;49.506;10.400;2023-07-02T06:18:49;97451.50;;;21.45;50.31
9423;BME280;65863;49.506;10.400;2023-07-02T06:21:33;97503.84;;;21.66;49.53
9423;BME280;65863;49.506;10.400;2023-07-02T06:24:17;97487.34;;;20.59;51.18
9423;BME280;65863;49.506;10.400;2023-07-02T06:27:02;97483.88;;;21.20;51.46
9423;BME280;65863;49.506;10.400;2023-07-02T06:29:46;97515.22;;;21.04;51.06
9423;BME280;65863;49.506;10.400;2023-07-02T06:32:30;97479.38;;;20.27;52.28
9423;BME280;65863;49.506;10.400;2023-07-02T06:35:14;97528.97;;;20.08;52.26
9423;BME280;65863;49.506;10.400;2023-07-02T06:37:58;97520.19;;;20.46;52.75
9423;BME280;65863;49.506;10.400;2023-07-02T06:40:42;97508.16;;;20.61;52.14
9423;BME280;65863;49.506;10.400;2023-07-02T06:43:26;97496.25;;;20.95;51.83
9423;BME280;65863;49.506;10.400;2023-07-02T06:46:11;97481.06;;;20.05;51.48
9423;BME280;65863;49.506;10.400;2023-07-02T06:48:55;97442.63;;;18.85;53.02
9423;BME280;65863;49.506;10.400;2023-07-02T06:51:39;97525.16;;;19.50;54.53
9423;BME280;65863;49.506;10.400;2023-07-02T06:54:25;97518.63;;;20.43;53.70
9423;BME280;65863;49.506;10.400;2023-07-02T06:57:08;97508.66;;;20.58;52.01
9423;BME280;65863;49.506;10.400;2023-07-02T06:59:57;97470.31;;;19.36;53.07
9423;BME280;65863;49.506;10.400;2023-07-02T07:02:43;97481.19;;;19.53;54.10
9423;BME280;65863;49.506;10.400;2023-07-02T07:05:27;97518.09;;;19.91;54.20
9423;BME280;65863;49.506;10.400;2023-07-02T07:08:11;97476.84;;;19.92;53.89
9423;BME280;65863;49.506;10.400;2023-07-02T07:10:55;97511.94;;;20.80;52.00
9423;BME280;65863;49.506;10.400;2023-07-02T07:13:39;97485.78;;;21.00;50.84
9423;BME280;65863;49.506;10.400;2023-07-02T07:16:23;97510.13;;;21.78;49.82
9423;BME280;65863;49.506;10.400;2023-07-02T07:19:07;97458.47;;;20.80;48.88
9423;BME280;65863;49.506;10.400;2023-07-02T07:21:51;97438.41;;;21.08;49.04
9423;BME280;65863;49.506;10.400;2023-07-02T07:24:35;97511.03;;;21.67;47.95
9423;BME280;65863;49.506;10.400;2023-07-02T07:27:19;97511.13;;;21.23;48.25
9423;BME280;65863;49.506;10.400;2023-07-02T07:30:03;97513.03;;;21.48;48.46
9423;BME280;65863;49.506;10.400;2023-07-02T07:32:51;97507.38;;;21.80;47.82
9423;BME280;65863;49.506;10.400;2023-07-02T07:35:36;97505.91;;;21.63;47.56
9423;BME280;65863;49.506;10.400;2023-07-02T07:38:20;97512.09;;;21.44;47.79
9423;BME280;65863;49.506;10.400;2023-07-02T07:41:04;97507.50;;;20.77;48.82
9423;BME280;65863;49.506;10.400;2023-07-02T07:43:48;97489.28;;;20.26;49.81
9423;BME280;65863;49.506;10.400;2023-07-02T07:46:32;97513.66;;;20.71;50.91
9423;BME280;65863;49.506;10.400;2023-07-02T07:49:16;97517.44;;;20.48;50.63
9423;BME280;65863;49.506;10.400;2023-07-02T07:52:00;97526.19;;;20.52;50.81
9423;BME280;65863;49.506;10.400;2023-07-02T07:54:44;97481.59;;;20.15;52.04
9423;BME280;65863;49.506;10.400;2023-07-02T07:57:28;97467.56;;;20.19;52.10
9423;BME280;65863;49.506;10.400;2023-07-02T08:00:12;97465.97;;;19.88;51.85
9423;BME280;65863;49.506;10.400;2023-07-02T08:03:03;97415.53;;;19.63;51.65
9423;BME280;65863;49.506;10.400;2023-07-02T08:05:47;97535.13;;;19.77;52.70
9423;BME280;65863;49.506;10.400;2023-07-02T08:08:31;97508.81;;;19.90;53.01
9423;BME280;65863;49.506;10.400;2023-07-02T08:11:15;97513.69;;;20.02;52.39
9423;BME280;65863;49.506;10.400;2023-07-02T08:13:59;97482.63;;;19.80;52.07
9423;BME280;65863;49.506;10.400;2023-07-02T08:16:43;97506.34;;;20.68;50.88
9423;BME280;65863;49.506;10.400;2023-07-02T08:19:28;97520.56;;;20.82;50.34
9423;BME280;65863;49.506;10.400;2023-07-02T08:22:12;97536.66;;;20.47;50.74
9423;BME280;65863;49.506;10.400;2023-07-02T08:24:57;97527.47;;;20.49;50.31
9423;BME280;65863;49.506;10.400;2023-07-02T08:27:41;97540.78;;;20.30;49.74
9423;BME280;65863;49.506;10.400;2023-07-02T08:30:25;97527.81;;;19.60;51.24
9423;BME280;65863;49.506;10.400;2023-07-02T08:33:09;97536.47;;;20.02;50.49
9423;BME280;65863;49.506;10.400;2023-07-02T08:35:53;97542.69;;;20.26;51.05
9423;BME280;65863;49.506;10.400;2023-07-02T08:38:37;97535.59;;;20.83;49.92
9423;BME280;65863;49.506;10.400;2023-07-02T08:41:23;97532.75;;;20.83;49.34
9423;BME280;65863;49.506;10.400;2023-07-02T08:44:08;97451.53;;;20.26;48.69
9423;BME280;65863;49.506;10.400;2023-07-02T08:46:53;97526.88;;;20.94;48.49
9423;BME280;65863;49.506;10.400;2023-07-02T08:49:39;97527.06;;;20.69;48.85
9423;BME280;65863;49.506;10.400;2023-07-02T08:52:24;97538.66;;;20.59;50.04
9423;BME280;65863;49.506;10.400;2023-07-02T08:55:07;97546.16;;;20.80;48.82
9423;BME280;65863;49.506;10.400;2023-07-02T08:57:53;97554.19;;;20.70;48.49
9423;BME280;65863;49.506;10.400;2023-07-02T09:00:37;97476.50;;;20.41;47.93
9423;BME280;65863;49.506;10.400;2023-07-02T09:03:25;97516.97;;;21.41;47.38
9423;BME280;65863;49.506;10.400;2023-07-02T09:06:10;97556.94;;;21.71;46.54
9423;BME280;65863;49.506;10.400;2023-07-02T09:09:03;97549.09;;;21.72;47.19
9423;BME280;65863;49.506;10.400;2023-07-02T09:11:51;97528.06;;;21.19;47.04
9423;BME280;65863;49.506;10.400;2023-07-02T09:14:35;97546.72;;;21.06;48.03
9423;BME280;65863;49.506;10.400;2023-07-02T09:17:19;97533.41;;;21.11;48.21
9423;BME280;65863;49.506;10.400;2023-07-02T09:20:07;97449.22;;;20.96;46.24
9423;BME280;65863;49.506;10.400;2023-07-02T09:22:55;97490.38;;;21.37;45.84
9423;BME280;65863;49.506;10.400;2023-07-02T09:25:40;97490.59;;;21.89;45.75
9423;BME280;65863;49.506;10.400;2023-07-02T09:28:24;97549.00;;;22.33;45.22
9423;BME280;65863;49.506;10.400;2023-07-02T09:31:08;97555.28;;;22.14;44.88
9423;BME280;65863;49.506;10.400;2023-07-02T09:34:01;97563.09;;;21.36;46.11
9423;BME280;65863;49.506;10.400;2023-07-02T09:36:45;97567.59;;;20.53;46.60
9423;BME280;65863;49.506;10.400;2023-07-02T09:39:34;97549.50;;;20.90;47.05
9423;BME280;65863;49.506;10.400;2023-07-02T09:42:19;97564.59;;;21.98;44.86
9423;BME280;65863;49.506;10.400;2023-07-02T09:45:06;97552.06;;;22.38;43.80
9423;BME280;65863;49.506;10.400;2023-07-02T09:47:54;97538.88;;;22.14;42.37
9423;BME280;65863;49.506;10.400;2023-07-02T09:50:42;97557.13;;;22.23;42.40
9423;BME280;65863;49.506;10.400;2023-07-02T09:53:28;97557.22;;;21.93;42.68
9423;BME280;65863;49.506;10.400;2023-07-02T09:56:12;97553.56;;;21.45;42.84
9423;BME280;65863;49.506;10.400;2023-07-02T09:58:56;97558.41;;;22.20;43.04
9423;BME280;65863;49.506;10.400;2023-07-02T10:01:41;97565.41;;;22.17;42.44
9423;BME280;65863;49.506;10.400;2023-07-02T10:04:25;97564.69;;;21.84;42.69
9423;BME280;65863;49.506;10.400;2023-07-02T10:07:10;97551.84;;;21.70;43.36
9423;BME280;65863;49.506;10.400;2023-07-02T10:09:54;97557.28;;;22.11;42.94
9423;BME280;65863;49.506;10.400;2023-07-02T10:12:46;97551.84;;;22.83;40.60
9423;BME280;65863;49.506;10.400;2023-07-02T10:15:30;97552.31;;;22.78;39.90
9423;BME280;65863;49.506;10.400;2023-07-02T10:18:26;97549.38;;;21.78;40.74
9423;BME280;65863;49.506;10.400;2023-07-02T10:21:14;97551.78;;;21.99;41.77
9423;BME280;65863;49.506;10.400;2023-07-02T10:24:09;97565.22;;;22.29;41.30
9423;BME280;65863;49.506;10.400;2023-07-02T10:26:57;97563.16;;;22.63;40.63
9423;BME280;65863;49.506;10.400;2023-07-02T10:29:49;97573.22;;;22.98;39.20
9423;BME280;65863;49.506;10.400;2023-07-02T10:32:34;97525.41;;;22.33;40.20
9423;BME280;65863;49.506;10.400;2023-07-02T10:35:19;97571.19;;;22.67;39.82
9423;BME280;65863;49.506;10.400;2023-07-02T10:38:04;97575.91;;;22.28;39.90
9423;BME280;65863;49.506;10.400;2023-07-02T10:40:59;97567.09;;;22.72;38.24
9423;BME280;65863;49.506;10.400;2023-07-02T10:43:46;97571.72;;;22.97;38.64
9423;BME280;65863;49.506;10.400;2023-07-02T10:46:30;97482.78;;;22.73;38.35
9423;BME280;65863;49.506;10.400;2023-07-02T10:49:17;97555.34;;;23.52;37.90
9423;BME280;65863;49.506;10.400;2023-07-02T10:52:02;97563.50;;;23.60;37.46
9423;BME280;65863;49.506;10.400;2023-07-02T10:54:48;97550.53;;;23.77;36.76
9423;BME280;65863;49.506;10.400;2023-07-02T10:57:32;97540.91;;;24.06;36.91
9423;BME280;65863;49.506;10.400;2023-07-02T11:00:16;97514.44;;;23.49;36.10
9423;BME280;65863;49.506;10.400;2023-07-02T11:03:03;97566.34;;;24.16;36.30
9423;BME280;65863;49.506;10.400;2023-07-02T11:05:48;97564.22;;;23.60;37.05
9423;BME280;65863;49.506;10.400;2023-07-02T11:08:35;97579.72;;;23.35;37.82
9423;BME280;65863;49.506;10.400;2023-07-02T11:11:19;97547.75;;;23.41;38.24
9423;BME280;65863;49.506;10.400;2023-07-02T11:14:04;97566.47;;;23.26;37.66
9423;BME280;65863;49.506;10.400;2023-07-02T11:16:54;97555.50;;;23.20;37.92
9423;BME280;65863;49.506;10.400;2023-07-02T11:19:38;97554.56;;;23.69;37.88
9423;BME280;65863;49.506;10.400;2023-07-02T11:22:31;97553.03;;;24.04;37.08
9423;BME280;65863;49.506;10.400;2023-07-02T11:25:17;97550.72;;;23.63;37.54
9423;BME280;65863;49.506;10.400;2023-07-02T11:28:03;97560.31;;;24.08;38.28
9423;BME280;65863;49.506;10.400;2023-07-02T11:30:47;97555.38;;;24.70;36.48
9423;BME280;65863;49.506;10.400;2023-07-02T11:33:38;97563.69;;;23.84;36.50
9423;BME280;65863;49.506;10.400;2023-07-02T11:36:24;97551.16;;;23.55;37.43
9423;BME280;65863;49.506;10.400;2023-07-02T11:39:08;97516.88;;;23.95;37.05
9423;BME280;65863;49.506;10.400;2023-07-02T11:41:52;97510.25;;;23.91;36.66
9423;BME280;65863;49.506;10.400;2023-07-02T11:44:36;97545.72;;;23.09;36.81
9423;BME280;65863;49.506;10.400;2023-07-02T11:47:20;97526.38;;;23.82;37.35
9423;BME280;65863;49.506;10.400;2023-07-02T11:50:05;97591.56;;;24.19;36.83
9423;BME280;65863;49.506;10.400;2023-07-02T11:52:50;97565.91;;;23.29;37.14
9423;BME280;65863;49.506;10.400;2023-07-02T11:55:33;97563.94;;;23.16;38.29
9423;BME280;65863;49.506;10.400;2023-07-02T11:58:17;97536.66;;;23.69;38.18
9423;BME280;65863;49.506;10.400;2023-07-02T12:01:02;97539.28;;;24.21;37.35
9423;BME280;65863;49.506;10.400;2023-07-02T12:03:46;97546.28;;;24.36;35.52
9423;BME280;65863;49.506;10.400;2023-07-02T12:06:29;97526.94;;;23.96;35.07
9423;BME280;65863;49.506;10.400;2023-07-02T12:09:13;97552.03;;;24.36;35.94
9423;BME280;65863;49.506;10.400;2023-07-02T12:11:57;97563.03;;;24.64;35.32
9423;BME280;65863;49.506;10.400;2023-07-02T12:14:41;97536.34;;;23.99;34.48
9423;BME280;65863;49.506;10.400;2023-07-02T12:17:27;97532.19;;;23.84;35.07
9423;BME280;65863;49.506;10.400;2023-07-02T12:20:11;97496.50;;;23.87;35.18
9423;BME280;65863;49.506;10.400;2023-07-02T12:22:56;97539.50;;;24.47;35.21
9423;BME280;65863;49.506;10.400;2023-07-02T12:25:40;97566.13;;;24.30;35.34
9423;BME280;65863;49.506;10.400;2023-07-02T12:28:24;97545.13;;;24.23;34.26
9423;BME280;65863;49.506;10.400;2023-07-02T12:31:09;97550.34;;;24.91;34.78
9423;BME280;65863;49.506;10.400;2023-07-02T12:33:52;97506.22;;;24.18;35.16
9423;BME280;65863;49.506;10.400;2023-07-02T12:36:37;97537.34;;;24.88;34.92
9423;BME280;65863;49.506;10.400;2023-07-02T12:39:20;97549.66;;;24.50;33.38
9423;BME280;65863;49.506;10.400;2023-07-02T12:42:05;97535.19;;;25.10;32.78
9423;BME280;65863;49.506;10.400;2023-07-02T12:44:48;97525.63;;;25.48;32.87
9423;BME280;65863;49.506;10.400;2023-07-02T12:47:32;97539.78;;;25.20;32.94
9423;BME280;65863;49.506;10.400;2023-07-02T12:50:16;97533.31;;;24.75;34.55
9423;BME280;65863;49.506;10.400;2023-07-02T12:53:00;97532.19;;;25.06;34.28
9423;BME280;65863;49.506;10.400;2023-07-02T12:55:45;97550.75;;;25.48;34.05
9423;BME280;65863;49.506;10.400;2023-07-02T12:58:29;97539.00;;;25.39;34.53
9423;BME280;65863;49.506;10.400;2023-07-02T13:01:13;97509.41;;;24.90;34.45
9423;BME280;65863;49.506;10.400;2023-07-02T13:03:57;97517.22;;;25.10;33.41
9423;BME280;65863;49.506;10.400;2023-07-02T13:06:50;97549.16;;;24.36;34.02
9423;BME280;65863;49.506;10.400;2023-07-02T13:09:34;97528.19;;;23.91;34.79
9423;BME280;65863;49.506;10.400;2023-07-02T13:12:18;97540.41;;;24.32;34.54
9423;BME280;65863;49.506;10.400;2023-07-02T13:15:02;97556.78;;;23.71;35.49
9423;BME280;65863;49.506;10.400;2023-07-02T13:17:46;97547.09;;;24.38;34.84
9423;BME280;65863;49.506;10.400;2023-07-02T13:20:30;97560.66;;;24.58;34.89
9423;BME280;65863;49.506;10.400;2023-07-02T13:23:14;97509.22;;;24.42;35.36
9423;BME280;65863;49.506;10.400;2023-07-02T13:25:58;97558.16;;;24.88;35.78
9423;BME280;65863;49.506;10.400;2023-07-02T13:28:42;97553.91;;;24.49;35.82
9423;BME280;65863;49.506;10.400;2023-07-02T13:31:26;97557.59;;;24.32;34.35
9423;BME280;65863;49.506;10.400;2023-07-02T13:34:10;97555.16;;;24.04;34.11
9423;BME280;65863;49.506;10.400;2023-07-02T13:36:54;97456.78;;;23.39;34.95
9423;BME280;65863;49.506;10.400;2023-07-02T13:39:38;97542.59;;;24.33;35.32
9423;BME280;65863;49.506;10.400;2023-07-02T13:42:22;97496.13;;;23.20;36.23
9423;BME280;65863;49.506;10.400;2023-07-02T13:45:08;97553.25;;;23.91;37.22
9423;BME280;65863;49.506;10.400;2023-07-02T13:47:52;97551.78;;;24.10;36.75
9423;BME280;65863;49.506;10.400;2023-07-02T13:50:36;97532.44;;;24.70;35.96
9423;BME280;65863;49.506;10.400;2023-07-02T13:53:20;97559.72;;;25.14;35.32
9423;BME280;65863;49.506;10.400;2023-07-02T13:56:04;97549.06;;;24.54;35.05
9423;BME280;65863;49.506;10.400;2023-07-02T14:01:42;97543.47;;;24.78;34.91
9423;BME280;65863;49.506;10.400;2023-07-02T14:04:26;97538.16;;;24.70;35.33
9423;BME280;65863;49.506;10.400;2023-07-02T14:07:11;97531.59;;;24.26;35.76
9423;BME280;65863;49.506;10.400;2023-07-02T14:09:55;97541.13;;;23.74;36.05
9423;BME280;65863;49.506;10.400;2023-07-02T14:12:40;97544.38;;;24.22;36.07
9423;BME280;65863;49.506;10.400;2023-07-02T14:15:25;97525.84;;;25.10;35.10
9423;BME280;65863;49.506;10.400;2023-07-02T14:18:09;97517.00;;;25.72;33.36
9423;BME280;65863;49.506;10.400;2023-07-02T14:20:53;97489.38;;;25.61;33.55
9423;BME280;65863;49.506;10.400;2023-07-02T14:23:37;97493.72;;;25.62;32.87
9423;BME280;65863;49.506;10.400;2023-07-02T14:26:21;97541.91;;;26.12;32.79
9423;BME280;65863;49.506;10.400;2023-07-02T14:29:05;97550.75;;;25.48;32.15
9423;BME280;65863;49.506;10.400;2023-07-02T14:31:49;97533.13;;;24.91;33.25
9423;BME280;65863;49.506;10.400;2023-07-02T14:34:33;97549.66;;;25.59;33.07